Time;durP1;ratioP1;P1;durP2;ratioP2;P2;SDS_P1;SDS_P2;PMS_P1;PMS_P2;Temp;Humidity;BMP_temperature;BMP_pressure;BME280_temperature;BME280_humidity;BME280_pressure;Samples;Min_cycle;Max_cycle;Signal;HPM_P1;HPM_P2
2023/12/12 08:45:23;;;;;;;1.60;1.10;;;10.60;99.90;;;;;;4853502;23;20605;-78
2023/12/12 08:47:50;;;;;;;1.27;0.90;;;10.60;99.90;;;;;;4882730;29;20250;-78
2023/12/12 08:50:17;;;;;;;4.23;1.00;;;10.60;99.90;;;;;;4909248;29;20320;-73
2023/12/12 08:52:45;;;;;;;5.27;1.10;;;10.60;99.90;;;;;;4918668;29;20234;-72
2023/12/12 08:55:12;;;;;;;4.83;1.40;;;10.70;99.90;;;;;;4902652;29;20206;-74
2023/12/12 08:57:40;;;;;;;3.77;0.70;;;10.80;99.90;;;;;;4899844;29;20550;-71
2023/12/12 09:00:10;;;;;;;2.90;1.10;;;10.70;99.90;;;;;;4898682;29;20298;-70
2023/12/12 09:02:39;;;;;;;3.30;0.97;;;10.80;99.90;;;;;;4915246;29;20225;-71
2023/12/12 09:05:07;;;;;;;2.50;0.80;;;10.80;99.90;;;;;;4903793;29;20207;-70
2023/12/12 09:07:34;;;;;;;7.30;1.57;;;10.80;99.90;;;;;;4899660;29;20206;-72
2023/12/12 09:10:02;;;;;;;1.53;0.80;;;10.80;99.90;;;;;;4899475;29;20294;-71
2023/12/12 09:12:29;;;;;;;1.40;0.83;;;10.80;99.90;;;;;;4899089;29;20230;-71
2023/12/12 09:14:56;;;;;;;2.97;1.00;;;11.00;99.90;;;;;;4898792;29;20666;-75
2023/12/12 09:17:23;;;;;;;1.97;0.87;;;11.10;99.90;;;;;;4898895;29;20250;-74
2023/12/12 09:19:51;;;;;;;1.23;0.70;;;11.10;99.90;;;;;;4898864;29;20293;-73
2023/12/12 09:22:18;;;;;;;1.37;0.80;;;11.10;99.90;;;;;;4898872;29;20646;-74
2023/12/12 09:24:45;;;;;;;3.03;0.83;;;11.20;99.90;;;;;;4899028;29;20639;-70
2023/12/12 09:27:12;;;;;;;3.40;0.60;;;11.40;99.90;;;;;;4899150;29;20623;-72
2023/12/12 09:29:39;;;;;;;1.10;0.80;;;11.60;99.90;;;;;;4898693;29;20289;-71
2023/12/12 09:32:07;;;;;;;1.23;0.83;;;11.70;99.90;;;;;;4904724;29;20704;-74
2023/12/12 09:34:34;;;;;;;3.53;1.10;;;11.80;99.90;;;;;;4908208;29;20202;-76
2023/12/12 09:37:02;;;;;;;2.17;1.10;;;11.90;99.90;;;;;;4898072;29;20646;-78
2023/12/12 09:39:29;;;;;;;2.43;0.73;;;11.80;99.90;;;;;;4907462;29;20274;-75
2023/12/12 09:42:00;;;;;;;2.37;0.70;;;11.80;99.90;;;;;;4898282;29;20237;-74
2023/12/12 09:44:31;;;;;;;3.57;1.17;;;11.80;99.90;;;;;;4898212;29;20666;-78
2023/12/12 09:46:58;;;;;;;2.63;0.63;;;11.80;99.90;;;;;;4898068;29;20615;-74
2023/12/12 09:49:26;;;;;;;2.50;0.70;;;11.80;99.90;;;;;;4898880;29;20245;-74
2023/12/12 09:51:55;;;;;;;1.67;0.67;;;11.90;99.90;;;;;;4898255;29;20257;-73
2023/12/12 09:54:24;;;;;;;4.07;0.80;;;11.90;99.90;;;;;;4898539;29;20214;-74
2023/12/12 09:56:55;;;;;;;1.70;0.63;;;11.90;99.90;;;;;;4898642;29;20210;-74
2023/12/12 09:59:22;;;;;;;2.27;0.70;;;11.90;99.90;;;;;;4898205;29;20570;-74
2023/12/12 10:01:52;;;;;;;1.80;0.80;;;11.90;99.90;;;;;;4898309;29;20234;-74
2023/12/12 10:04:19;;;;;;;2.40;0.70;;;11.90;99.90;;;;;;4898563;29;20304;-74
2023/12/12 10:06:52;;;;;;;1.30;0.60;;;11.80;99.90;;;;;;4898615;29;20214;-74
2023/12/12 10:09:20;;;;;;;1.83;0.70;;;11.70;99.90;;;;;;4897982;29;20210;-74
2023/12/12 10:11:49;;;;;;;1.63;1.07;;;11.90;99.90;;;;;;4897512;29;20321;-71
2023/12/12 10:14:35;;;;;;;1.43;0.87;;;11.90;99.90;;;;;;4898160;29;20218;-70
2023/12/12 10:17:04;;;;;;;2.27;0.50;;;11.90;99.90;;;;;;4898143;29;20266;-72
2023/12/12 10:19:31;;;;;;;1.00;0.70;;;12.00;99.90;;;;;;4897990;29;20622;-73
2023/12/12 10:22:02;;;;;;;0.80;0.50;;;12.00;99.90;;;;;;4897914;29;20298;-73
2023/12/12 10:24:29;;;;;;;1.00;0.70;;;12.00;99.90;;;;;;4897944;29;20257;-70
2023/12/12 10:26:58;;;;;;;1.60;0.83;;;12.00;99.90;;;;;;4897791;29;20649;-73
2023/12/12 10:29:25;;;;;;;2.13;0.73;;;12.00;99.90;;;;;;4898038;29;20210;-71
2023/12/12 10:31:53;;;;;;;2.77;0.93;;;12.00;99.90;;;;;;4898123;29;20234;-73
2023/12/12 10:34:23;;;;;;;1.87;1.00;;;12.10;99.90;;;;;;4898244;29;20689;-73
2023/12/12 10:36:50;;;;;;;4.00;0.60;;;12.10;99.90;;;;;;4898031;29;20580;-72
2023/12/12 10:39:17;;;;;;;1.53;0.90;;;12.00;99.90;;;;;;4897901;29;20214;-69
2023/12/12 10:41:52;;;;;;;2.47;0.77;;;12.10;99.90;;;;;;4898126;29;20276;-71
2023/12/12 10:44:23;;;;;;;1.27;0.70;;;12.30;99.90;;;;;;4897904;29;20279;-71
2023/12/12 10:46:53;;;;;;;3.03;0.83;;;12.40;99.90;;;;;;4897690;29;20221;-72
2023/12/12 10:49:22;;;;;;;1.00;0.60;;;12.50;99.90;;;;;;4897484;29;20241;-70
2023/12/12 10:51:51;;;;;;;1.57;0.70;;;12.40;99.90;;;;;;4897469;29;21490;-72
2023/12/12 10:54:24;;;;;;;2.93;0.90;;;12.30;99.90;;;;;;4897670;29;20214;-72
2023/12/12 10:56:52;;;;;;;4.33;1.00;;;12.40;99.90;;;;;;4897649;29;20310;-69
2023/12/12 10:59:23;;;;;;;1.40;0.70;;;12.40;99.90;;;;;;4897915;29;20210;-70
2023/12/12 11:01:51;;;;;;;1.90;0.70;;;12.60;99.90;;;;;;4897496;29;20274;-72
2023/12/12 11:04:19;;;;;;;1.87;1.00;;;12.60;99.90;;;;;;4897793;29;20218;-72
2023/12/12 11:06:47;;;;;;;1.13;0.63;;;12.60;99.90;;;;;;4897353;29;20234;-69
2023/12/12 11:09:14;;;;;;;2.70;0.73;;;12.50;99.90;;;;;;4897767;29;20238;-70
2023/12/12 11:11:46;;;;;;;2.63;0.70;;;12.30;99.90;;;;;;4896676;29;20604;-71
2023/12/12 11:14:14;;;;;;;1.40;0.80;;;12.30;99.90;;;;;;4896918;29;20328;-73
2023/12/12 11:16:44;;;;;;;1.17;0.70;;;12.30;99.90;;;;;;4897130;29;20298;-69
2023/12/12 11:19:17;;;;;;;1.27;0.60;;;12.30;99.90;;;;;;4897697;29;20313;-71
2023/12/12 11:21:45;;;;;;;0.70;0.70;;;12.40;99.90;;;;;;4898088;29;20241;-70
2023/12/12 11:24:12;;;;;;;1.20;0.50;;;12.60;99.90;;;;;;4902054;29;20582;-74
2023/12/12 11:26:42;;;;;;;1.00;0.50;;;12.50;99.90;;;;;;4902999;29;20206;-75
2023/12/12 11:29:11;;;;;;;2.67;0.50;;;12.70;99.90;;;;;;4901207;29;20214;-75
2023/12/12 11:31:56;;;;;;;2.40;0.80;;;12.90;99.90;;;;;;4900641;29;20732;-74
2023/12/12 11:34:25;;;;;;;2.60;1.10;;;12.90;99.90;;;;;;4900885;29;20693;-75
2023/12/12 11:36:54;;;;;;;1.23;0.60;;;12.90;99.90;;;;;;4900400;29;20237;-71
2023/12/12 11:39:34;;;;;;;1.70;0.90;;;12.90;99.90;;;;;;4900545;29;20799;-72
2023/12/12 11:42:05;;;;;;;1.53;0.73;;;12.80;99.90;;;;;;4900318;29;20627;-72
2023/12/12 11:44:43;;;;;;;1.17;0.70;;;12.70;99.90;;;;;;4900884;29;20226;-71
2023/12/12 11:47:17;;;;;;;1.40;0.63;;;12.70;99.90;;;;;;4900029;29;20575;-75
2023/12/12 11:49:47;;;;;;;2.67;0.63;;;12.60;99.90;;;;;;4900026;29;20213;-72
2023/12/12 11:52:48;;;;;;;0.90;0.50;;;12.50;99.90;;;;;;4899910;29;20242;-71
2023/12/12 11:55:20;;;;;;;0.67;0.53;;;12.40;99.90;;;;;;4900297;29;20260;-74
2023/12/12 11:57:48;;;;;;;1.33;0.77;;;12.40;99.90;;;;;;4896219;29;20207;-72
2023/12/12 12:00:17;;;;;;;1.23;1.07;;;12.40;99.90;;;;;;4900509;29;20634;-73
2023/12/12 12:02:44;;;;;;;2.43;0.70;;;12.40;99.90;;;;;;4904789;29;20573;-72
2023/12/12 12:05:14;;;;;;;1.10;0.80;;;12.40;99.90;;;;;;4918674;29;20657;-76
2023/12/12 12:07:41;;;;;;;1.27;0.77;;;12.50;99.90;;;;;;4904074;29;20258;-73
2023/12/12 12:10:09;;;;;;;2.00;0.60;;;12.70;99.90;;;;;;4899420;29;20578;-71
2023/12/12 12:12:36;;;;;;;0.90;0.50;;;12.80;99.90;;;;;;4899659;29;20321;-70
2023/12/12 12:15:05;;;;;;;0.77;0.53;;;12.80;99.90;;;;;;4898985;29;20217;-71
2023/12/12 12:17:35;;;;;;;0.80;0.60;;;12.90;99.90;;;;;;4899556;29;20301;-70
2023/12/12 12:20:03;;;;;;;1.10;0.90;;;13.00;99.90;;;;;;4898527;29;20214;-71
2023/12/12 12:22:32;;;;;;;1.83;0.77;;;13.00;99.90;;;;;;4899789;29;20725;-73
2023/12/12 12:24:59;;;;;;;0.57;0.50;;;12.90;99.90;;;;;;4899849;29;20291;-71
2023/12/12 12:27:26;;;;;;;1.00;0.70;;;12.80;99.90;;;;;;4900551;29;20233;-70
2023/12/12 12:30:00;;;;;;;0.60;0.50;;;12.80;99.90;;;;;;4900213;29;20679;-70
2023/12/12 12:32:27;;;;;;;0.97;0.63;;;12.60;99.90;;;;;;4900052;29;20269;-71
2023/12/12 12:35:06;;;;;;;0.80;0.70;;;12.50;99.90;;;;;;4899731;29;20211;-71
2023/12/12 12:37:36;;;;;;;0.90;0.77;;;12.40;99.90;;;;;;4900043;29;20206;-71
2023/12/12 12:40:05;;;;;;;0.77;0.67;;;12.50;99.90;;;;;;4899778;29;20215;-72
2023/12/12 12:42:33;;;;;;;0.90;0.63;;;12.60;99.90;;;;;;4899900;29;20282;-71
2023/12/12 12:45:00;;;;;;;2.30;0.90;;;12.60;99.90;;;;;;4899770;29;20222;-70
2023/12/12 12:47:27;;;;;;;1.20;0.90;;;12.60;99.90;;;;;;4899817;29;20211;-71
2023/12/12 12:49:54;;;;;;;1.40;0.90;;;12.60;99.90;;;;;;4899645;29;20210;-73
2023/12/12 12:52:21;;;;;;;0.87;0.70;;;12.60;99.90;;;;;;4899615;29;20249;-70
2023/12/12 12:54:49;;;;;;;2.10;0.70;;;12.50;99.90;;;;;;4900145;29;20661;-73
2023/12/12 12:57:16;;;;;;;1.83;0.90;;;12.50;99.90;;;;;;4899791;29;20238;-71
2023/12/12 12:59:44;;;;;;;0.90;0.60;;;12.50;99.90;;;;;;4899577;29;20225;-72
2023/12/12 13:02:11;;;;;;;1.10;0.80;;;12.60;99.90;;;;;;4899448;29;20241;-72
2023/12/12 13:04:40;;;;;;;2.03;0.70;;;12.70;99.90;;;;;;4899561;29;20218;-72
2023/12/12 13:07:07;;;;;;;3.80;1.20;;;12.80;99.90;;;;;;4899701;29;20246;-71
2023/12/12 13:09:35;;;;;;;2.53;0.70;;;12.80;99.90;;;;;;4899304;29;20578;-70
2023/12/12 13:12:04;;;;;;;0.93;0.70;;;12.80;99.90;;;;;;4899380;29;20307;-70
2023/12/12 13:14:31;;;;;;;1.50;0.93;;;12.80;99.90;;;;;;4899284;29;20210;-70
2023/12/12 13:16:58;;;;;;;0.77;0.70;;;12.90;99.90;;;;;;4898991;29;20210;-72
2023/12/12 13:19:26;;;;;;;1.43;0.90;;;12.90;99.90;;;;;;4899287;29;20221;-71
2023/12/12 13:21:54;;;;;;;2.20;0.93;;;13.00;99.90;;;;;;4899154;29;20709;-70
2023/12/12 13:24:22;;;;;;;0.93;0.63;;;13.00;99.90;;;;;;4899283;29;20211;-71
2023/12/12 13:26:49;;;;;;;1.20;0.80;;;13.00;99.90;;;;;;4899288;29;20233;-70
2023/12/12 13:29:19;;;;;;;1.00;0.70;;;13.00;99.90;;;;;;4899430;29;20210;-72
2023/12/12 13:31:46;;;;;;;1.40;0.83;;;13.00;99.90;;;;;;4899004;29;20246;-74
2023/12/12 13:34:13;;;;;;;1.93;0.90;;;13.10;99.90;;;;;;4899288;29;20211;-70
2023/12/12 13:36:40;;;;;;;1.77;0.77;;;13.20;99.90;;;;;;4898986;29;20211;-71
2023/12/12 13:39:12;;;;;;;1.20;0.63;;;13.20;99.90;;;;;;4899133;29;20623;-70
2023/12/12 13:41:40;;;;;;;1.30;0.70;;;13.20;99.90;;;;;;4898502;29;20593;-71
2023/12/12 13:44:07;;;;;;;1.30;0.80;;;13.10;99.90;;;;;;4898639;29;20210;-71
2023/12/12 13:46:36;;;;;;;0.97;0.70;;;13.00;99.90;;;;;;4898108;29;20317;-70
2023/12/12 13:49:03;;;;;;;1.10;0.60;;;12.90;99.90;;;;;;4898684;29;20206;-72
2023/12/12 13:51:30;;;;;;;1.30;0.73;;;12.90;99.90;;;;;;4898788;29;20241;-72
2023/12/12 13:53:57;;;;;;;1.67;0.67;;;12.90;99.90;;;;;;4898804;29;20256;-71
2023/12/12 13:56:24;;;;;;;1.57;0.70;;;12.90;99.90;;;;;;4898728;29;20214;-71
2023/12/12 13:58:51;;;;;;;1.80;0.80;;;12.90;99.90;;;;;;4898471;29;20297;-71
2023/12/12 14:01:18;;;;;;;1.03;0.70;;;12.90;99.90;;;;;;4898794;29;20262;-71
2023/12/12 14:03:46;;;;;;;2.50;0.63;;;13.10;99.90;;;;;;4898752;29;20320;-70
2023/12/12 14:06:13;;;;;;;0.67;0.47;;;13.10;99.90;;;;;;4898628;29;20211;-70
2023/12/12 14:08:40;;;;;;;0.90;0.67;;;13.10;99.90;;;;;;4898529;29;20294;-75
2023/12/12 14:11:07;;;;;;;4.10;0.83;;;13.10;99.90;;;;;;4898288;29;20240;-71
2023/12/12 14:13:34;;;;;;;1.20;0.77;;;13.10;99.90;;;;;;4898865;29;20630;-72
2023/12/12 14:16:02;;;;;;;2.60;0.80;;;13.20;99.90;;;;;;4898354;29;20253;-71
2023/12/12 14:18:29;;;;;;;1.03;0.77;;;13.20;99.90;;;;;;4898393;29;20217;-72
2023/12/12 14:20:57;;;;;;;0.93;0.70;;;13.10;99.90;;;;;;4898008;29;20258;-71
2023/12/12 14:23:25;;;;;;;1.27;0.70;;;13.20;99.90;;;;;;4897999;29;20651;-71
2023/12/12 14:25:51;;;;;;;1.33;0.90;;;13.30;99.90;;;;;;4898310;29;20302;-73
2023/12/12 14:28:18;;;;;;;1.60;0.70;;;13.10;99.90;;;;;;4898102;29;20697;-71
2023/12/12 14:30:46;;;;;;;1.17;0.40;;;13.00;99.90;;;;;;4898188;29;20210;-71
2023/12/12 14:33:13;;;;;;;0.77;0.57;;;12.90;99.90;;;;;;4898031;29;20234;-72
2023/12/12 14:35:40;;;;;;;0.70;0.60;;;12.80;99.90;;;;;;4898088;29;20210;-70
2023/12/12 14:38:09;;;;;;;1.40;0.70;;;12.80;99.90;;;;;;4897812;29;20226;-74
2023/12/12 14:40:36;;;;;;;1.20;0.60;;;12.90;99.90;;;;;;4897994;29;20224;-71
2023/12/12 14:43:04;;;;;;;1.10;0.67;;;12.90;99.90;;;;;;4898690;29;20295;-74
2023/12/12 14:45:31;;;;;;;2.20;0.50;;;12.90;99.90;;;;;;4898137;29;20563;-75
2023/12/12 14:48:00;;;;;;;0.83;0.60;;;12.80;99.90;;;;;;4898295;29;20234;-72
2023/12/12 14:50:27;;;;;;;0.57;0.50;;;12.90;99.90;;;;;;4898238;29;20297;-72
2023/12/12 14:52:54;;;;;;;1.17;0.60;;;12.80;99.90;;;;;;4897846;29;20294;-71
2023/12/12 14:55:22;;;;;;;0.90;0.57;;;12.80;99.90;;;;;;4897978;29;20562;-71
2023/12/12 14:57:49;;;;;;;1.13;0.77;;;12.90;99.90;;;;;;4899155;29;20215;-71
2023/12/12 15:00:16;;;;;;;0.50;0.40;;;12.90;99.90;;;;;;4902040;29;20606;-72
2023/12/12 15:02:43;;;;;;;2.03;0.50;;;13.00;99.90;;;;;;4901713;29;20309;-71
2023/12/12 15:05:11;;;;;;;0.80;0.50;;;13.00;99.90;;;;;;4901763;29;20210;-74
2023/12/12 15:07:38;;;;;;;1.50;0.57;;;13.00;99.90;;;;;;4902156;29;20293;-70
2023/12/12 15:10:07;;;;;;;1.63;0.90;;;12.90;99.90;;;;;;4901659;29;20308;-71
2023/12/12 15:12:36;;;;;;;1.73;0.60;;;12.90;99.90;;;;;;4901452;29;20676;-71
2023/12/12 15:15:05;;;;;;;1.30;0.63;;;12.80;99.90;;;;;;4902257;29;20206;-70
2023/12/12 15:17:33;;;;;;;1.43;0.60;;;12.70;99.90;;;;;;4901704;29;20210;-70
2023/12/12 15:20:01;;;;;;;0.90;0.47;;;12.60;99.90;;;;;;4904014;29;20206;-70
2023/12/12 15:22:28;;;;;;;0.40;0.40;;;12.50;99.90;;;;;;4901364;29;20226;-70
2023/12/12 15:24:55;;;;;;;2.27;0.60;;;12.40;99.90;;;;;;4903111;29;20245;-72
2023/12/12 15:27:22;;;;;;;2.70;0.50;;;12.30;99.90;;;;;;4901152;29;20696;-70
2023/12/12 15:29:53;;;;;;;1.80;0.73;;;12.30;99.90;;;;;;4901424;29;20762;-71
2023/12/12 15:32:20;;;;;;;3.63;0.70;;;12.20;99.90;;;;;;4901301;29;20610;-71
2023/12/12 15:34:47;;;;;;;1.07;0.57;;;12.20;99.90;;;;;;4901278;29;20210;-70
2023/12/12 15:37:14;;;;;;;0.90;0.53;;;12.20;99.90;;;;;;4901281;29;20701;-71
2023/12/12 15:39:41;;;;;;;1.57;0.60;;;12.20;99.90;;;;;;4901189;29;20211;-70
2023/12/12 15:42:09;;;;;;;1.30;0.70;;;12.20;99.90;;;;;;4901106;29;20230;-71
2023/12/12 15:44:36;;;;;;;3.43;1.53;;;12.10;99.90;;;;;;4901132;29;20254;-71
2023/12/12 15:47:04;;;;;;;4.23;0.90;;;12.00;99.90;;;;;;4900864;29;20229;-71
2023/12/12 15:49:31;;;;;;;3.00;0.63;;;11.90;99.90;;;;;;4901152;29;20238;-71
2023/12/12 15:51:58;;;;;;;4.63;0.67;;;11.90;99.90;;;;;;4901152;29;20249;-70
2023/12/12 15:54:26;;;;;;;1.63;0.70;;;11.80;99.90;;;;;;4901014;29;20210;-71
2023/12/12 15:56:54;;;;;;;1.27;0.60;;;11.80;99.90;;;;;;4900987;29;20253;-71
2023/12/12 15:59:21;;;;;;;1.27;0.47;;;11.70;99.90;;;;;;4900738;29;20210;-70
2023/12/12 16:01:48;;;;;;;3.50;0.93;;;11.60;99.90;;;;;;4900550;29;20286;-74
2023/12/12 16:04:16;;;;;;;3.73;1.00;;;11.60;99.90;;;;;;4900844;29;20214;-71
2023/12/12 16:06:43;;;;;;;2.50;0.70;;;11.60;99.90;;;;;;4900861;29;20306;-74
2023/12/12 16:09:13;;;;;;;1.60;0.67;;;11.60;99.90;;;;;;4899991;29;20215;-74
2023/12/12 16:11:41;;;;;;;1.80;0.57;;;11.60;99.90;;;;;;4900312;29;20238;-71
2023/12/12 16:14:08;;;;;;;2.30;0.63;;;11.50;99.90;;;;;;4900309;29;20214;-72
2023/12/12 16:16:35;;;;;;;4.10;0.77;;;11.50;99.90;;;;;;4900108;29;20262;-71
2023/12/12 16:19:02;;;;;;;1.07;0.50;;;11.40;99.90;;;;;;4900627;29;20218;-71
2023/12/12 16:21:31;;;;;;;1.70;0.60;;;11.40;99.90;;;;;;4900475;29;20316;-71
2023/12/12 16:23:58;;;;;;;1.57;0.80;;;11.40;99.90;;;;;;4900240;29;20665;-73
2023/12/12 16:26:26;;;;;;;2.93;0.70;;;11.40;99.90;;;;;;4900424;29;20301;-76
2023/12/12 16:28:54;;;;;;;4.47;1.47;;;11.40;99.90;;;;;;4901038;29;20210;-74
2023/12/12 16:31:21;;;;;;;6.03;0.97;;;11.40;99.90;;;;;;4900347;29;20230;-75
2023/12/12 16:33:48;;;;;;;5.17;1.17;;;11.30;99.90;;;;;;4900340;29;20214;-75
2023/12/12 16:36:15;;;;;;;5.03;2.63;;;11.30;99.90;;;;;;4900624;29;20230;-73
2023/12/12 16:38:45;;;;;;;2.40;1.00;;;11.30;99.90;;;;;;4900518;29;20630;-72
2023/12/12 16:41:12;;;;;;;1.40;0.90;;;11.30;99.90;;;;;;4900558;29;20215;-74
2023/12/12 16:43:39;;;;;;;1.87;0.80;;;11.30;99.90;;;;;;4900217;29;20590;-73
2023/12/12 16:46:06;;;;;;;1.83;0.67;;;11.30;99.90;;;;;;4899981;29;20222;-71
2023/12/12 16:48:33;;;;;;;2.87;0.87;;;11.30;99.90;;;;;;4900085;29;20246;-70
2023/12/12 16:51:00;;;;;;;3.27;0.60;;;11.20;99.90;;;;;;4900155;29;20282;-72
2023/12/12 16:53:28;;;;;;;2.83;0.70;;;11.20;99.90;;;;;;4899759;29;20238;-71
2023/12/12 16:55:57;;;;;;;4.20;0.80;;;11.20;99.90;;;;;;4899953;29;20304;-71
2023/12/12 16:58:24;;;;;;;3.63;0.70;;;11.10;99.90;;;;;;4899945;29;20221;-72
2023/12/12 17:00:51;;;;;;;4.63;0.60;;;11.10;99.90;;;;;;4899785;29;20234;-73
2023/12/12 17:03:18;;;;;;;3.67;0.70;;;11.10;99.90;;;;;;4899517;29;20709;-74
2023/12/12 17:05:44;;;;;;;2.03;0.70;;;11.00;99.90;;;;;;4899665;29;20211;-74
2023/12/12 17:08:12;;;;;;;1.67;0.80;;;11.00;99.90;;;;;;4899428;29;20253;-73
2023/12/12 17:10:38;;;;;;;2.70;0.50;;;11.00;99.90;;;;;;4899532;29;20212;-72
2023/12/12 17:13:07;;;;;;;1.90;0.60;;;10.90;99.90;;;;;;4899245;29;20689;-71
2023/12/12 17:15:35;;;;;;;3.20;0.70;;;11.00;99.90;;;;;;4899502;29;20210;-74
2023/12/12 17:18:02;;;;;;;3.57;1.30;;;10.90;99.90;;;;;;4899400;29;20206;-75
2023/12/12 17:20:29;;;;;;;5.07;1.17;;;10.80;99.90;;;;;;4899115;29;20206;-75
2023/12/12 17:22:56;;;;;;;5.67;0.70;;;10.80;99.90;;;;;;4898399;29;20237;-74
2023/12/12 17:25:23;;;;;;;5.87;0.60;;;10.80;99.90;;;;;;4899292;29;20297;-75
2023/12/12 17:27:50;;;;;;;4.77;0.93;;;10.80;99.90;;;;;;4899133;29;20245;-73
2023/12/12 17:30:20;;;;;;;2.20;1.13;;;10.80;99.90;;;;;;4898997;29;20696;-70
2023/12/12 17:32:47;;;;;;;1.83;0.90;;;10.70;99.90;;;;;;4899002;29;20278;-72
2023/12/12 17:35:14;;;;;;;3.13;0.80;;;10.80;99.90;;;;;;4898821;29;20214;-71
2023/12/12 17:37:41;;;;;;;7.80;1.07;;;10.80;99.90;;;;;;4898884;29;20214;-75
2023/12/12 17:40:09;;;;;;;7.00;1.10;;;10.70;99.90;;;;;;4898640;29;20211;-74
2023/12/12 17:42:38;;;;;;;2.13;0.83;;;10.80;99.90;;;;;;4898862;29;20234;-70
2023/12/12 17:45:06;;;;;;;2.07;1.00;;;10.90;99.90;;;;;;4898535;29;20266;-72
2023/12/12 17:47:37;;;;;;;1.67;0.93;;;10.90;99.90;;;;;;4898631;29;20255;-74
2023/12/12 17:50:05;;;;;;;1.70;1.00;;;11.00;99.90;;;;;;4898676;29;20206;-74
2023/12/12 17:52:32;;;;;;;3.40;0.83;;;11.00;99.90;;;;;;4898665;29;20245;-73
2023/12/12 17:54:59;;;;;;;3.53;0.90;;;11.00;99.90;;;;;;4898958;29;20238;-70
2023/12/12 17:57:26;;;;;;;1.53;0.67;;;11.10;99.90;;;;;;4898538;29;20631;-71
2023/12/12 17:59:53;;;;;;;3.57;1.00;;;11.20;99.90;;;;;;4898460;29;20519;-71
2023/12/12 18:02:20;;;;;;;6.30;1.23;;;11.20;99.90;;;;;;4898253;29;20298;-70
2023/12/12 18:04:48;;;;;;;2.47;0.80;;;11.20;99.90;;;;;;4898427;29;20309;-73
2023/12/12 18:07:15;;;;;;;2.83;0.83;;;11.10;99.90;;;;;;4898183;29;20219;-73
2023/12/12 18:09:41;;;;;;;5.57;1.20;;;11.00;99.90;;;;;;4898449;29;20270;-73
2023/12/12 18:12:08;;;;;;;2.40;1.27;;;11.00;99.90;;;;;;4898225;29;20235;-73
2023/12/12 18:14:35;;;;;;;3.83;1.10;;;10.90;99.90;;;;;;4898269;29;20305;-74
2023/12/12 18:17:03;;;;;;;1.77;1.00;;;10.90;99.90;;;;;;4898018;29;20669;-74
2023/12/12 18:19:31;;;;;;;2.20;0.83;;;10.90;99.90;;;;;;4885839;29;20238;-74
2023/12/12 18:21:59;;;;;;;3.90;0.70;;;11.00;99.90;;;;;;4884442;29;20255;-74
2023/12/12 18:24:26;;;;;;;3.00;1.00;;;11.00;99.90;;;;;;4896726;29;20217;-74
2023/12/12 18:26:55;;;;;;;4.67;1.10;;;11.10;99.90;;;;;;4897432;29;20214;-75
2023/12/12 18:29:22;;;;;;;3.40;0.97;;;11.10;99.90;;;;;;4899756;29;20214;-75
2023/12/12 18:31:48;;;;;;;5.30;1.27;;;11.20;99.90;;;;;;4897141;29;20313;-77
2023/12/12 18:34:15;;;;;;;4.20;1.03;;;11.20;99.90;;;;;;4896884;29;20293;-76
2023/12/12 18:36:42;;;;;;;3.77;0.80;;;11.20;99.90;;;;;;4896550;29;20210;-72
2023/12/12 18:39:12;;;;;;;1.47;0.90;;;11.20;99.90;;;;;;4896906;29;20211;-74
2023/12/12 18:41:43;;;;;;;2.03;1.03;;;11.20;99.90;;;;;;4897350;29;20234;-71
2023/12/12 18:44:12;;;;;;;2.83;1.20;;;11.20;99.90;;;;;;4897429;29;20266;-70
2023/12/12 18:46:40;;;;;;;4.00;0.70;;;11.20;99.90;;;;;;4896959;29;20327;-74
2023/12/12 18:49:09;;;;;;;1.23;0.60;;;11.20;99.90;;;;;;4891067;29;20218;-72
2023/12/12 18:51:36;;;;;;;5.23;1.20;;;11.20;99.90;;;;;;4890522;29;20238;-75
2023/12/12 18:54:05;;;;;;;2.97;0.67;;;11.20;99.90;;;;;;4897158;29;20333;-73
2023/12/12 18:56:34;;;;;;;2.80;1.40;;;11.20;99.90;;;;;;4897398;29;20552;-75
2023/12/12 18:59:01;;;;;;;5.33;1.10;;;11.10;99.90;;;;;;4897016;29;20209;-75
2023/12/12 19:01:28;;;;;;;2.73;0.70;;;11.20;99.90;;;;;;4896619;29;20785;-72
2023/12/12 19:03:55;;;;;;;3.20;1.20;;;11.00;99.90;;;;;;4897031;29;20215;-72
2023/12/12 19:06:23;;;;;;;3.63;0.80;;;11.00;99.90;;;;;;4897468;29;20245;-71
2023/12/12 19:08:50;;;;;;;3.80;0.87;;;10.90;99.90;;;;;;4897286;29;20245;-74
2023/12/12 19:11:18;;;;;;;4.57;0.80;;;10.80;99.90;;;;;;4898029;29;20634;-71
2023/12/12 19:13:48;;;;;;;4.13;1.57;;;10.70;99.90;;;;;;4886978;29;20726;-75
2023/12/12 19:16:16;;;;;;;2.23;0.70;;;10.70;99.90;;;;;;4897478;29;20678;-71
2023/12/12 19:18:43;;;;;;;3.57;0.60;;;10.70;99.90;;;;;;4895375;29;20211;-75
2023/12/12 19:21:10;;;;;;;2.13;0.63;;;10.60;99.90;;;;;;4882905;29;20250;-74
2023/12/12 19:23:37;;;;;;;2.57;0.40;;;10.60;99.90;;;;;;4896786;29;20209;-70
2023/12/12 19:26:04;;;;;;;3.53;0.70;;;10.50;99.90;;;;;;4896725;29;20241;-73
2023/12/12 19:28:32;;;;;;;1.23;0.70;;;10.50;99.90;;;;;;4897238;29;20207;-76
2023/12/12 19:31:00;;;;;;;4.67;1.47;;;10.40;99.90;;;;;;4896565;29;20627;-76
2023/12/12 19:33:27;;;;;;;2.17;0.50;;;10.40;99.90;;;;;;4896765;29;20571;-73
2023/12/12 19:35:54;;;;;;;1.80;0.30;;;10.40;99.90;;;;;;4896782;29;20210;-70
2023/12/12 19:38:21;;;;;;;0.80;0.40;;;10.40;99.90;;;;;;4896774;29;20218;-70
2023/12/12 19:40:49;;;;;;;3.80;0.43;;;10.30;99.90;;;;;;4896928;29;20219;-74
2023/12/12 19:43:17;;;;;;;1.77;0.30;;;10.30;99.90;;;;;;4897172;29;20233;-74
2023/12/12 19:45:44;;;;;;;2.47;0.60;;;10.20;99.90;;;;;;4899099;29;20585;-70
2023/12/12 19:48:12;;;;;;;1.30;0.67;;;10.20;99.90;;;;;;4900666;29;20218;-74
2023/12/12 19:50:39;;;;;;;3.57;0.50;;;10.20;99.90;;;;;;4896371;29;20214;-76
2023/12/12 19:53:08;;;;;;;0.73;0.30;;;10.10;99.90;;;;;;4891798;29;20289;-75
2023/12/12 19:55:34;;;;;;;2.70;0.50;;;10.00;99.90;;;;;;4896015;29;20263;-76
2023/12/12 19:58:01;;;;;;;1.37;0.83;;;10.00;99.90;;;;;;4896371;29;20214;-75
2023/12/12 20:00:28;;;;;;;1.00;0.70;;;9.90;99.90;;;;;;4900011;29;20271;-75
2023/12/12 20:02:55;;;;;;;0.47;0.30;;;9.80;99.90;;;;;;4899997;29;20254;-72
2023/12/12 20:05:24;;;;;;;2.30;0.50;;;9.80;99.90;;;;;;4900248;29;20732;-72
2023/12/12 20:07:51;;;;;;;0.83;0.20;;;9.70;99.90;;;;;;4900230;29;20218;-76
2023/12/12 20:10:18;;;;;;;0.70;0.20;;;9.70;99.90;;;;;;4899862;29;20211;-72
2023/12/12 20:12:46;;;;;;;0.40;0.40;;;9.70;99.90;;;;;;4899934;29;20230;-70
2023/12/12 20:15:14;;;;;;;1.40;0.20;;;9.70;99.90;;;;;;4899792;29;20214;-74
2023/12/12 20:17:41;;;;;;;0.57;0.30;;;9.70;99.90;;;;;;4900095;29;20222;-70
2023/12/12 20:20:09;;;;;;;0.60;0.30;;;9.70;99.90;;;;;;4899705;29;20617;-72
2023/12/12 20:22:37;;;;;;;2.60;0.97;;;9.70;99.90;;;;;;4899608;29;20263;-71
2023/12/12 20:25:06;;;;;;;0.60;0.20;;;9.70;99.90;;;;;;4899567;29;20225;-70
2023/12/12 20:27:36;;;;;;;0.50;0.40;;;9.70;99.90;;;;;;4899015;29;20214;-71
2023/12/12 20:30:05;;;;;;;1.20;0.60;;;9.80;99.90;;;;;;4887777;29;20298;-70
2023/12/12 20:32:32;;;;;;;0.40;0.20;;;9.80;99.90;;;;;;4899363;29;20320;-75
2023/12/12 20:35:00;;;;;;;0.40;0.30;;;9.70;99.90;;;;;;4899845;29;20264;-71
2023/12/12 20:37:27;;;;;;;3.17;0.40;;;9.50;99.90;;;;;;4899517;29;20305;-72
2023/12/12 20:39:55;;;;;;;0.70;0.40;;;9.40;99.90;;;;;;4899741;29;20214;-71
2023/12/12 20:42:22;;;;;;;1.80;0.40;;;9.30;99.90;;;;;;4900063;29;20230;-75
2023/12/12 20:44:49;;;;;;;1.93;0.60;;;9.20;99.90;;;;;;4899343;29;20269;-70
2023/12/12 20:47:16;;;;;;;0.70;0.33;;;9.20;99.90;;;;;;4898968;29;20221;-73
2023/12/12 20:49:44;;;;;;;0.90;0.43;;;9.10;99.90;;;;;;4899405;29;20213;-71
2023/12/12 20:52:11;;;;;;;2.40;0.40;;;9.20;99.90;;;;;;4899307;29;20226;-72
2023/12/12 20:54:39;;;;;;;1.13;0.60;;;9.20;99.90;;;;;;4899392;29;20291;-73
2023/12/12 20:57:09;;;;;;;0.90;0.50;;;9.20;99.90;;;;;;4898701;29;20293;-73
2023/12/12 20:59:36;;;;;;;1.47;0.53;;;9.20;99.90;;;;;;4899435;29;20214;-75
2023/12/12 21:02:03;;;;;;;1.47;0.60;;;9.20;99.90;;;;;;4898539;29;20254;-74
2023/12/12 21:04:30;;;;;;;1.03;0.40;;;9.20;99.90;;;;;;4898893;29;20292;-74
2023/12/12 21:06:57;;;;;;;0.93;0.40;;;9.20;99.90;;;;;;4899080;29;20230;-74
2023/12/12 21:09:24;;;;;;;1.53;0.70;;;9.10;99.90;;;;;;4898701;29;20206;-73
2023/12/12 21:11:51;;;;;;;3.70;0.70;;;9.10;99.90;;;;;;4899119;29;20234;-74
2023/12/12 21:14:19;;;;;;;1.60;0.70;;;9.20;99.90;;;;;;4898936;29;20701;-75
2023/12/12 21:16:46;;;;;;;2.83;0.40;;;9.10;99.90;;;;;;4898704;29;20210;-74
2023/12/12 21:19:13;;;;;;;0.80;0.30;;;9.00;99.90;;;;;;4899016;29;20579;-74
2023/12/12 21:21:43;;;;;;;2.20;0.50;;;9.00;99.90;;;;;;4898452;29;20233;-74
2023/12/12 21:24:10;;;;;;;3.70;2.00;;;9.10;99.90;;;;;;4898991;29;20218;-73
2023/12/12 21:26:37;;;;;;;2.10;0.47;;;9.20;99.90;;;;;;4898705;29;20242;-75
2023/12/12 21:29:05;;;;;;;1.93;0.30;;;9.20;99.90;;;;;;4897985;29;20684;-73
2023/12/12 21:31:33;;;;;;;1.53;0.40;;;9.20;99.90;;;;;;4898454;29;20226;-75
2023/12/12 21:34:00;;;;;;;0.50;0.20;;;9.30;99.90;;;;;;4898295;29;20613;-74
2023/12/12 21:36:27;;;;;;;3.07;0.50;;;9.40;99.90;;;;;;4886644;29;20543;-71